Sunday, November 18, 2018, 2:53 PM GMT
Back to Local

CWQH, Lennoxville

Location: , , Canada Lat: 45.367
Local Time: 2:53 PM GMT (14:53 GMT) Lon: -71.817
Time Zone: GMT Elev: 593 ft

Show me the last for .
Show Decoded

2018-11-18 14:00 METAR CWQH 181400Z AUTO 13002KT M09/M11 RMK AO1 SOG 24 T10871114 =
2018-11-18 13:00 METAR CWQH 181300Z AUTO 19002KT M10/M12 RMK AO1 SOG 24 T11021122 =
2018-11-18 12:00 METAR CWQH 181200Z AUTO 27001KT M10/M12 RMK AO1 SOG 25 T10961119 =
2018-11-18 11:00 METAR CWQH 181100Z AUTO 25003KT M10/M12 RMK AO1 SOG 24 T10961123 =
2018-11-18 10:00 METAR CWQH 181000Z AUTO 26005KT M08/M10 RMK AO1 SOG 25 T10821103 =
2018-11-18 09:00 METAR CWQH 180900Z AUTO 24003KT M08/M10 RMK AO1 SOG 25 T10831099 =
2018-11-18 08:00 METAR CWQH 180800Z AUTO 25004KT M08/M09 RMK AO1 SOG 25 T10761093 =
2018-11-18 07:00 METAR CWQH 180700Z AUTO 27001KT M07/M09 RMK AO1 SOG 25 T10701093 =
2018-11-18 06:00 METAR CWQH 180600Z AUTO 21003KT M07/M10 RMK AO1 SOG 25 T10701095 =
2018-11-18 05:00 METAR CWQH 180500Z AUTO 21001KT M06/M09 RMK AO1 SOG 25 T10591088 =
2018-11-18 04:00 METAR CWQH 180400Z AUTO 31006KT M05/M08 RMK AO1 SOG 25 T10451081 =
2018-11-18 03:00 METAR CWQH 180300Z AUTO 30007KT M03/M05 RMK AO1 SOG 25 T10321054 =
2018-11-18 02:00 METAR CWQH 180200Z AUTO 29008KT M02/M06 RMK AO1 SOG 25 PK WND 32020/0110
                 T10231058 =
2018-11-18 01:00 METAR CWQH 180100Z AUTO 30008KT M01/M04 RMK AO1 SOG 24 T10101042 =
2018-11-18 00:00 METAR CWQH 180000Z AUTO 30009KT M00/M03 RMK AO1 SOG 24 T10021030 50012 =
2018-11-17 23:00 METAR CWQH 172300Z AUTO 23005KT M00/M01 RMK AO1 SOG 24 T10021014 50012 =
2018-11-17 22:00 METAR CWQH 172200Z AUTO 25004KT M00/M01 RMK AO1 2PAST HR SOG 25 M P0005
                 T10031012 50012 =
2018-11-17 21:00 METAR CWQH 172100Z AUTO 30002KT M00/M01 RMK AO1 SOG 24 T10021009 =
2018-11-17 20:00 METAR CWQH 172000Z AUTO 30004KT M00/M01 RMK AO1 SOG 24 T10011008 =
2018-11-17 19:00 METAR CWQH 171900Z AUTO 30007KT 01/M02 RMK AO1 SOG 26 T00091024 =
2018-11-17 18:00 METAR CWQH 171800Z AUTO 30006KT 01/M03 RMK AO1 SOG 27 T00111026 =
2018-11-17 17:00 METAR CWQH 171700Z AUTO 27007KT 01/M02 RMK AO1 SOG 27 T00111021 =
2018-11-17 16:00 METAR CWQH 171600Z AUTO 27007KT M00/M02 RMK AO1 SOG 27 T10041019 =
2018-11-17 15:00 METAR CWQH 171500Z AUTO 28005KT M00/M02 RMK AO1 SOG 27 T10011018 =

Support USWX by starting your Amazon purchase here.